createdAt,value
2019-06-10T00:02:04.236Z,101293.08
2019-06-10T00:04:36.653Z,101289.55
2019-06-10T00:07:08.524Z,101292.78
2019-06-10T00:09:41.986Z,101282.02
2019-06-10T00:12:14.449Z,101286.09
2019-06-10T00:14:46.796Z,101284.73
2019-06-10T00:17:21.380Z,101276.50
2019-06-10T00:19:53.626Z,101274.36
2019-06-10T00:22:26.056Z,101271.59
2019-06-10T00:24:59.531Z,101267.89
2019-06-10T00:27:32.302Z,101263.81
2019-06-10T00:30:09.932Z,101262.22
2019-06-10T00:32:42.329Z,101261.42
2019-06-10T00:35:16.257Z,101265.68
2019-06-10T00:37:51.073Z,101260.41
2019-06-10T00:40:22.813Z,101259.10
2019-06-10T00:42:55.271Z,101256.92
2019-06-10T00:45:27.522Z,101256.67
2019-06-10T00:48:12.360Z,101255.55
2019-06-10T00:50:36.057Z,101258.52
2019-06-10T00:53:09.147Z,101261.42
2019-06-10T00:55:41.942Z,101257.48
2019-06-10T00:58:14.584Z,101258.20
2019-06-10T01:00:47.122Z,101257.26
2019-06-10T01:03:20.967Z,101259.33
2019-06-10T01:05:53.281Z,101257.77
2019-06-10T01:08:25.840Z,101257.82
2019-06-10T01:10:58.066Z,101263.06
2019-06-10T01:13:30.943Z,101259.46
2019-06-10T01:16:03.747Z,101257.27
2019-06-10T01:18:38.547Z,101265.95
2019-06-10T01:21:13.878Z,101263.83
2019-06-10T01:23:45.721Z,101268.40
2019-06-10T01:26:21.604Z,101271.54
2019-06-10T01:28:53.620Z,101273.77
2019-06-10T01:31:26.118Z,101280.79
2019-06-10T01:34:00.754Z,101274.77
2019-06-10T01:36:32.502Z,101273.58
2019-06-10T01:39:07.224Z,101279.91
2019-06-10T01:41:40.909Z,101276.06
2019-06-10T01:44:14.283Z,101278.09
2019-06-10T01:46:46.422Z,101242.41
2019-06-10T01:49:21.156Z,101280.38
2019-06-10T01:51:53.046Z,101274.97
2019-06-10T01:54:25.466Z,101276.77
2019-06-10T01:56:57.806Z,101279.67
2019-06-10T01:59:31.155Z,101273.61
2019-06-10T02:02:15.718Z,101269.17
2019-06-10T02:04:51.725Z,101276.88
2019-06-10T02:07:24.255Z,101277.16
2019-06-10T02:09:57.819Z,101278.38
2019-06-10T02:12:31.563Z,101280.83
2019-06-10T02:15:04.832Z,101280.67
2019-06-10T02:17:37.118Z,101285.34
2019-06-10T02:20:10.646Z,101280.30
2019-06-10T02:22:43.801Z,101283.05
2019-06-10T02:25:16.742Z,101289.70
2019-06-10T02:27:50.739Z,101290.65
2019-06-10T02:30:39.045Z,101282.14
2019-06-10T02:32:58.380Z,101289.52
2019-06-10T02:35:43.374Z,101290.66
2019-06-10T02:38:04.646Z,101285.30
2019-06-10T02:40:36.893Z,101284.69
2019-06-10T02:43:14.265Z,101283.88
2019-06-10T02:45:45.365Z,101277.63
2019-06-10T02:48:21.866Z,101282.53
2019-06-10T02:50:58.999Z,101284.66
2019-06-10T02:53:35.971Z,101282.20
2019-06-10T02:56:08.699Z,101296.25
2019-06-10T02:58:45.080Z,101303.57
2019-06-10T03:01:17.005Z,101305.72
2019-06-10T03:03:53.344Z,101305.77
2019-06-10T03:06:34.656Z,101309.34
2019-06-10T03:09:03.622Z,101303.27
2019-06-10T03:11:37.296Z,101302.16
2019-06-10T03:14:09.435Z,101307.38
2019-06-10T03:16:44.490Z,101303.05
2019-06-10T03:19:37.059Z,101306.97
2019-06-10T03:21:52.296Z,101309.73
2019-06-10T03:24:25.348Z,101312.32
2019-06-10T03:26:58.916Z,101307.79
2019-06-10T03:29:32.776Z,101306.34
2019-06-10T03:32:05.617Z,101303.54
2019-06-10T03:34:45.878Z,101301.53
2019-06-10T03:37:12.912Z,101300.92
2019-06-10T03:39:45.353Z,101302.28
2019-06-10T03:42:18.778Z,101305.75
2019-06-10T03:44:52.539Z,101307.33
2019-06-10T03:47:27.149Z,101308.05
2019-06-10T03:49:59.210Z,101299.91
2019-06-10T03:52:32.439Z,101299.21
2019-06-10T03:55:07.495Z,101298.37
2019-06-10T03:57:42.110Z,101299.03
2019-06-10T04:00:14.940Z,101306.75
2019-06-10T04:02:47.262Z,101298.91
2019-06-10T04:05:19.874Z,101308.97
2019-06-10T04:07:55.094Z,101302.45
2019-06-10T04:10:29.732Z,101304.33
2019-06-10T04:13:03.337Z,101308.94
2019-06-10T04:15:35.526Z,101304.91
2019-06-10T04:18:08.022Z,101312.18
2019-06-10T04:20:42.672Z,101318.05
2019-06-10T04:23:17.619Z,101318.66
2019-06-10T04:25:52.536Z,101316.69
2019-06-10T04:28:25.590Z,101317.22
2019-06-10T04:30:58.039Z,101316.25
2019-06-10T04:33:32.831Z,101322.59
2019-06-10T04:36:05.612Z,101311.74
2019-06-10T04:38:38.036Z,101315.98
2019-06-10T04:41:12.658Z,101315.37
2019-06-10T04:43:47.063Z,101308.52
2019-06-10T04:46:23.658Z,101314.13
2019-06-10T04:48:55.197Z,101312.13
2019-06-10T04:51:28.487Z,101311.48
2019-06-10T04:54:03.133Z,101313.25
2019-06-10T04:56:36.381Z,101309.34
2019-06-10T04:59:08.704Z,101314.13
2019-06-10T05:01:43.339Z,101311.52
2019-06-10T05:04:15.657Z,101316.09
2019-06-10T05:06:49.312Z,101318.37
2019-06-10T05:09:23.951Z,101311.59
2019-06-10T05:11:55.860Z,101317.14
2019-06-10T05:14:29.101Z,101318.21
2019-06-10T05:17:04.334Z,101313.38
2019-06-10T05:19:36.691Z,101313.20
2019-06-10T05:22:09.193Z,101314.63
2019-06-10T05:24:42.991Z,101316.87
2019-06-10T05:27:15.280Z,101319.89
2019-06-10T05:29:47.824Z,101328.30
2019-06-10T05:32:23.218Z,101319.47
2019-06-10T05:34:56.338Z,101320.45
2019-06-10T05:37:29.362Z,101318.95
2019-06-10T05:40:05.960Z,101324.87
2019-06-10T05:42:38.118Z,101323.05
2019-06-10T05:45:12.272Z,101329.04
2019-06-10T05:47:45.559Z,101324.94
2019-06-10T05:50:17.871Z,101332.23
2019-06-10T05:52:52.042Z,101335.73
2019-06-10T05:55:25.507Z,101333.00
2019-06-10T05:57:59.053Z,101333.84
2019-06-10T06:00:33.490Z,101335.70
2019-06-10T06:03:05.677Z,101334.31
2019-06-10T06:05:40.651Z,101330.98
2019-06-10T06:08:12.877Z,101326.22
2019-06-10T06:10:47.779Z,101327.96
2019-06-10T06:13:19.900Z,101328.45
2019-06-10T06:15:53.651Z,101336.04
2019-06-10T06:18:25.829Z,101333.05
2019-06-10T06:20:57.897Z,101330.55
2019-06-10T06:23:32.933Z,101333.44
2019-06-10T06:26:07.703Z,101330.35
2019-06-10T06:28:43.139Z,101323.02
2019-06-10T06:31:16.584Z,101331.87
2019-06-10T06:33:49.124Z,101327.34
2019-06-10T06:36:22.639Z,101328.95
2019-06-10T06:38:54.526Z,101335.44
2019-06-10T06:41:27.456Z,101337.38
2019-06-10T06:44:02.138Z,101335.64
2019-06-10T06:46:37.509Z,101330.15
2019-06-10T06:49:08.338Z,101333.78
2019-06-10T06:51:51.725Z,101338.87
2019-06-10T06:54:13.903Z,101328.42
2019-06-10T06:56:45.953Z,101336.49
2019-06-10T06:59:22.397Z,101337.51
2019-06-10T07:01:54.992Z,101330.56
2019-06-10T07:04:29.643Z,101331.03
2019-06-10T07:07:04.241Z,101326.42
2019-06-10T07:09:37.408Z,101328.89
2019-06-10T07:12:13.059Z,101325.28
2019-06-10T07:14:48.553Z,101324.02
2019-06-10T07:17:22.740Z,101330.38
2019-06-10T07:19:57.565Z,101323.02
2019-06-10T07:22:29.414Z,101323.75
2019-06-10T07:25:06.374Z,101320.35
2019-06-10T07:27:38.381Z,101324.27
2019-06-10T07:30:14.270Z,101315.20
2019-06-10T07:32:47.277Z,101321.48
2019-06-10T07:35:22.223Z,101327.06
2019-06-10T07:37:58.151Z,101327.77
2019-06-10T07:40:32.968Z,101325.78
2019-06-10T07:43:06.369Z,101322.91
2019-06-10T07:45:41.857Z,101322.02
2019-06-10T07:48:16.511Z,101318.91
2019-06-10T07:50:49.910Z,101314.14
2019-06-10T07:53:22.357Z,101282.17
2019-06-10T07:55:55.234Z,101303.86
2019-06-10T07:58:29.139Z,101310.30
2019-06-10T08:01:05.512Z,101305.22
2019-06-10T08:03:42.535Z,101301.75
2019-06-10T08:06:15.420Z,101294.97
2019-06-10T08:08:52.865Z,101297.37
2019-06-10T08:11:24.722Z,101296.78
2019-06-10T08:13:58.303Z,101293.34
2019-06-10T08:16:32.702Z,101292.41
2019-06-10T08:19:31.568Z,101289.22
2019-06-10T08:21:40.370Z,101288.13
2019-06-10T08:24:14.204Z,101282.02
2019-06-10T08:26:47.769Z,101279.05
2019-06-10T08:29:23.580Z,101284.28
2019-06-10T08:31:55.723Z,101285.60
2019-06-10T08:34:32.779Z,101285.07
2019-06-10T08:37:04.679Z,101287.05
2019-06-10T08:39:38.243Z,101282.72
2019-06-10T08:42:12.443Z,101281.09
2019-06-10T08:44:47.268Z,101281.63
2019-06-10T08:47:20.021Z,101278.90
2019-06-10T08:49:54.109Z,101276.12
2019-06-10T08:52:29.799Z,101274.20
2019-06-10T08:55:03.299Z,101272.82
2019-06-10T08:57:38.392Z,101270.58
2019-06-10T09:00:15.549Z,101262.84
2019-06-10T09:02:53.655Z,101265.33
2019-06-10T09:05:24.728Z,101257.59
2019-06-10T09:07:57.102Z,101259.02
2019-06-10T09:10:31.456Z,101255.95
2019-06-10T09:13:08.732Z,101257.91
2019-06-10T09:16:07.126Z,101251.27
2019-06-10T09:18:25.468Z,101252.62
2019-06-10T09:20:59.039Z,101256.80
2019-06-10T09:23:33.192Z,101246.82
2019-06-10T09:26:05.520Z,101250.09
2019-06-10T09:28:46.219Z,101247.80
2019-06-10T09:31:16.716Z,101244.01
2019-06-10T09:33:53.637Z,101241.78
2019-06-10T09:36:24.420Z,101245.94
2019-06-10T09:38:56.797Z,101232.50
2019-06-10T09:41:37.341Z,101237.47
2019-06-10T09:44:12.690Z,101230.07
2019-06-10T09:46:48.686Z,101232.58
2019-06-10T09:49:27.114Z,101226.09
2019-06-10T09:51:59.719Z,101224.77
2019-06-10T09:54:41.609Z,101220.43
2019-06-10T09:57:28.743Z,101220.43
2019-06-10T10:00:04.799Z,101216.03
2019-06-10T10:02:38.716Z,101214.06
2019-06-10T10:05:15.411Z,101208.34
2019-06-10T10:07:52.963Z,101201.19
2019-06-10T10:10:28.319Z,101206.00
2019-06-10T10:13:02.685Z,101200.35
2019-06-10T10:15:35.636Z,101195.44
2019-06-10T10:18:13.194Z,101193.20
2019-06-10T10:20:48.142Z,101189.96
2019-06-10T10:23:22.692Z,101191.59
2019-06-10T10:25:57.397Z,101185.80
2019-06-10T10:28:33.520Z,101181.83
2019-06-10T10:31:09.311Z,101183.00
2019-06-10T10:33:42.603Z,101177.72
2019-06-10T10:36:16.527Z,101169.88
2019-06-10T10:38:50.821Z,101176.98
2019-06-10T10:41:24.115Z,101175.34
2019-06-10T10:43:59.681Z,101172.94
2019-06-10T10:46:32.684Z,101165.64
2019-06-10T10:49:06.321Z,101165.32
2019-06-10T10:51:41.104Z,101158.99
2019-06-10T10:54:28.421Z,101152.02
2019-06-10T10:56:55.166Z,101164.64
